« Back
NWS Peachtree City, Ga » Text Product » AHN Terminal Aerodrome Forecast


Printer-friendly Version
Current Version              Previous Versions:   1  2  3  4  5  6  7  8  9  

Terminal Aerodrome Forecast

472
FTAK31 PAJN 251127
TAFAHN
TAF
PAHN 251127Z 2512/2612 10008KT P6SM VCSH OVC008
      TEMPO 2513/2517 -SHRA BKN012 OVC020
     FM251700 10010G18KT P6SM SCT012 OVC025
     FM260200 10005KT P6SM SCT025 OVC035
     FM261000 12007KT 6SM -RA BR FEW007 OVC018
      AMD LTD TO CLD VIS AND WIND=

USA.gov is the U.S. government's official web portal to all federal, state and local government web resources and services.